createdAt,value
2019-05-06T00:00:20.613Z,11.50
2019-05-06T00:02:48.764Z,10.17
2019-05-06T00:05:16.870Z,13.03
2019-05-06T00:07:51.425Z,12.60
2019-05-06T00:10:29.023Z,7.93
2019-05-06T00:12:57.977Z,8.33
2019-05-06T00:15:26.769Z,12.33
2019-05-06T00:17:55.677Z,10.57
2019-05-06T00:20:24.535Z,14.33
2019-05-06T00:22:56.511Z,9.57
2019-05-06T00:25:47.185Z,11.60
2019-05-06T00:28:34.021Z,12.83
2019-05-06T00:31:12.739Z,13.37
2019-05-06T00:33:34.368Z,10.93
2019-05-06T00:36:04.556Z,10.97
2019-05-06T00:38:34.010Z,17.07
2019-05-06T00:41:05.563Z,13.00
2019-05-06T00:43:34.567Z,12.63
2019-05-06T00:46:04.632Z,11.93
2019-05-06T00:48:34.179Z,11.30
2019-05-06T00:51:04.567Z,16.67
2019-05-06T00:53:35.829Z,10.33
2019-05-06T00:56:04.620Z,14.43
2019-05-06T00:58:34.776Z,11.53
2019-05-06T01:01:04.635Z,9.80
2019-05-06T01:03:35.599Z,15.03
2019-05-06T01:06:08.763Z,13.47
2019-05-06T01:08:39.068Z,7.20
2019-05-06T01:11:12.008Z,10.60
2019-05-06T01:14:10.595Z,13.50
2019-05-06T01:16:39.607Z,15.10
2019-05-06T01:19:08.038Z,11.70
2019-05-06T01:21:36.225Z,10.17
2019-05-06T01:24:04.483Z,10.60
2019-05-06T01:26:33.890Z,6.97
2019-05-06T01:29:04.007Z,12.80
2019-05-06T01:31:42.278Z,11.33
2019-05-06T01:34:04.278Z,11.70
2019-05-06T01:36:34.294Z,13.50
2019-05-06T01:39:10.756Z,11.73
2019-05-06T01:42:01.578Z,10.60
2019-05-06T01:44:30.015Z,10.40
2019-05-06T01:46:58.147Z,15.80
2019-05-06T01:49:26.601Z,12.93
2019-05-06T01:51:54.995Z,10.00
2019-05-06T01:54:24.931Z,9.40
2019-05-06T01:56:53.854Z,18.93
2019-05-06T01:59:24.466Z,14.03
2019-05-06T02:01:58.142Z,11.03
2019-05-06T02:04:24.543Z,14.23
2019-05-06T02:06:54.562Z,16.23
2019-05-06T02:09:24.694Z,12.97
2019-05-06T02:11:53.798Z,12.57
2019-05-06T02:14:21.976Z,12.67
2019-05-06T02:16:50.228Z,10.37
2019-05-06T02:19:18.488Z,14.77
2019-05-06T02:22:06.306Z,12.20
2019-05-06T02:24:47.536Z,12.07
2019-05-06T02:27:15.750Z,14.43
2019-05-06T02:29:50.076Z,20.80
2019-05-06T02:32:47.263Z,14.13
2019-05-06T02:35:18.670Z,11.83
2019-05-06T02:37:46.876Z,12.13
2019-05-06T02:40:25.579Z,9.70
2019-05-06T02:42:55.035Z,12.07
2019-05-06T02:45:24.424Z,15.33
2019-05-06T02:48:08.093Z,13.87
2019-05-06T02:50:55.837Z,10.10
2019-05-06T02:53:26.110Z,8.90
2019-05-06T02:55:54.664Z,13.57
2019-05-06T02:58:23.711Z,11.40
2019-05-06T03:00:53.894Z,15.47
2019-05-06T03:03:23.363Z,11.23
2019-05-06T03:05:53.188Z,16.53
2019-05-06T03:08:23.682Z,13.80
2019-05-06T03:10:53.401Z,11.27
2019-05-06T03:13:23.799Z,9.17
2019-05-06T03:15:54.066Z,9.37
2019-05-06T03:18:23.603Z,12.67
2019-05-06T03:21:18.401Z,14.70
2019-05-06T03:23:54.218Z,11.93
2019-05-06T03:26:23.576Z,10.77
2019-05-06T03:28:53.535Z,11.83
2019-05-06T03:31:26.150Z,10.50
2019-05-06T03:34:16.195Z,10.53
2019-05-06T03:36:27.274Z,8.17
2019-05-06T03:38:54.036Z,9.97
2019-05-06T03:41:26.184Z,13.63
2019-05-06T03:43:54.303Z,13.53
2019-05-06T03:46:48.597Z,9.93
2019-05-06T03:49:16.894Z,14.77
2019-05-06T03:51:45.473Z,12.60
2019-05-06T03:54:15.012Z,15.07
2019-05-06T03:56:45.530Z,10.37
2019-05-06T03:59:16.106Z,9.40
2019-05-06T04:01:44.658Z,10.60
2019-05-06T04:04:12.853Z,14.67
2019-05-06T04:06:43.634Z,9.63
2019-05-06T04:09:13.276Z,9.27
2019-05-06T04:11:43.306Z,14.37
2019-05-06T04:14:14.018Z,10.10
2019-05-06T04:16:48.810Z,9.60
2019-05-06T04:19:33.322Z,11.93
2019-05-06T04:22:23.585Z,8.50
2019-05-06T04:25:16.884Z,8.57
2019-05-06T04:27:53.738Z,9.87
2019-05-06T04:30:24.315Z,11.23
2019-05-06T04:32:53.173Z,11.37
2019-05-06T04:35:23.048Z,14.97
2019-05-06T04:37:53.882Z,11.93
2019-05-06T04:40:23.874Z,17.50
2019-05-06T04:42:52.878Z,14.93
2019-05-06T04:45:23.684Z,12.53
2019-05-06T04:47:53.687Z,14.77
2019-05-06T04:50:24.201Z,13.67
2019-05-06T04:53:05.258Z,16.20
2019-05-06T04:55:35.657Z,13.27
2019-05-06T04:58:05.855Z,10.30
2019-05-06T05:00:36.411Z,12.70
2019-05-06T05:03:05.223Z,16.17
2019-05-06T05:05:33.698Z,11.33
2019-05-06T05:08:02.601Z,12.83
2019-05-06T05:10:38.347Z,10.37
2019-05-06T05:13:26.263Z,11.90
2019-05-06T05:16:23.374Z,12.70
2019-05-06T05:18:55.828Z,14.03
2019-05-06T05:21:24.001Z,9.43
2019-05-06T05:23:53.172Z,17.43
2019-05-06T05:26:22.754Z,8.77
2019-05-06T05:28:53.228Z,11.33
2019-05-06T05:31:23.037Z,10.87
2019-05-06T05:33:52.646Z,11.33
2019-05-06T05:36:23.056Z,13.97
2019-05-06T05:38:52.215Z,10.87
2019-05-06T05:41:20.897Z,8.53
2019-05-06T05:43:54.888Z,7.23
2019-05-06T05:46:23.757Z,8.60
2019-05-06T05:49:22.547Z,6.97
2019-05-06T05:51:52.056Z,7.83
2019-05-06T05:54:20.361Z,6.07
2019-05-06T05:56:49.165Z,8.80
2019-05-06T06:03:07.106Z,9.87
2019-05-06T06:05:35.268Z,6.67
2019-05-06T06:08:03.656Z,8.00
2019-05-06T06:10:42.573Z,8.17
2019-05-06T06:13:12.782Z,7.87
2019-05-06T06:16:03.770Z,7.30
2019-05-06T06:18:52.962Z,9.07
2019-05-06T06:21:32.388Z,9.10
2019-05-06T06:24:05.653Z,8.33
2019-05-06T06:26:33.864Z,12.30
2019-05-06T06:29:03.240Z,8.80
2019-05-06T06:31:52.280Z,6.63
2019-05-06T06:34:32.858Z,9.10
2019-05-06T06:37:19.650Z,8.37
2019-05-06T06:39:48.294Z,10.83
2019-05-06T06:42:16.563Z,10.33
2019-05-06T06:44:45.077Z,5.50
2019-05-06T06:47:13.451Z,6.93
2019-05-06T06:49:42.408Z,7.23
2019-05-06T06:52:14.211Z,8.93
2019-05-06T06:54:43.600Z,8.00
2019-05-06T06:57:21.760Z,8.53
2019-05-06T07:00:03.872Z,6.37
2019-05-06T07:02:38.069Z,10.30
2019-05-06T07:05:28.305Z,7.30
2019-05-06T07:07:54.876Z,6.17
2019-05-06T07:10:43.018Z,7.27
2019-05-06T07:13:16.310Z,11.47
2019-05-06T07:15:45.061Z,5.57
2019-05-06T07:18:13.745Z,7.43
2019-05-06T07:20:56.831Z,6.97
2019-05-06T07:23:26.034Z,6.53
2019-05-06T07:25:54.976Z,8.63
2019-05-06T07:28:23.989Z,9.03
2019-05-06T07:30:52.693Z,7.97
2019-05-06T07:33:22.930Z,7.07
2019-05-06T07:35:52.957Z,7.90
2019-05-06T07:38:23.046Z,5.37
2019-05-06T07:40:58.127Z,9.07
2019-05-06T07:43:49.203Z,11.30
2019-05-06T07:46:25.099Z,12.57
2019-05-06T07:48:53.254Z,11.17
2019-05-06T07:51:23.693Z,10.43
2019-05-06T07:53:52.461Z,4.97
2019-05-06T07:56:22.479Z,8.43
2019-05-06T07:58:53.081Z,6.13
2019-05-06T08:01:25.537Z,8.23
2019-05-06T08:03:53.299Z,11.83
2019-05-06T08:06:22.661Z,10.43
2019-05-06T08:08:53.640Z,6.50
2019-05-06T08:11:24.395Z,5.67
2019-05-06T08:13:52.854Z,13.47
2019-05-06T08:16:22.602Z,7.23
2019-05-06T08:18:52.350Z,4.33
2019-05-06T08:21:22.980Z,8.90
2019-05-06T08:23:52.488Z,8.93
2019-05-06T08:26:22.440Z,3.90
2019-05-06T08:28:52.737Z,6.90
2019-05-06T08:31:22.557Z,4.13
2019-05-06T08:33:52.461Z,7.03
2019-05-06T08:36:28.847Z,8.20
2019-05-06T08:38:58.337Z,7.60
2019-05-06T08:41:27.853Z,7.23
2019-05-06T08:43:56.404Z,7.20
2019-05-06T08:46:24.834Z,6.33
2019-05-06T08:48:53.114Z,4.63
2019-05-06T08:51:42.392Z,8.53
2019-05-06T08:54:16.424Z,4.97
2019-05-06T08:56:44.974Z,6.30
2019-05-06T08:59:14.135Z,3.30
2019-05-06T09:01:47.895Z,5.37
2019-05-06T09:04:17.045Z,5.20
2019-05-06T09:06:45.785Z,4.13
2019-05-06T09:09:14.411Z,9.07
2019-05-06T09:11:43.325Z,3.70
2019-05-06T09:14:13.668Z,5.27
2019-05-06T09:16:43.724Z,5.70
2019-05-06T09:19:12.898Z,11.40
2019-05-06T09:21:45.370Z,7.60
2019-05-06T09:24:12.764Z,3.63
2019-05-06T09:27:03.746Z,3.60
2019-05-06T09:30:04.218Z,5.43
2019-05-06T09:32:37.757Z,5.63
2019-05-06T09:35:07.051Z,4.47
2019-05-06T09:37:35.153Z,4.37
2019-05-06T09:40:04.016Z,4.90
2019-05-06T09:42:32.578Z,2.27
2019-05-06T09:45:03.180Z,2.40
2019-05-06T09:47:49.449Z,3.83
2019-05-06T09:50:34.912Z,4.87
2019-05-06T09:53:04.066Z,4.97
2019-05-06T09:55:46.766Z,3.67
2019-05-06T09:58:15.692Z,5.97
2019-05-06T10:00:47.529Z,3.57
2019-05-06T10:03:15.687Z,2.57
2019-05-06T10:05:44.143Z,3.47
2019-05-06T10:08:12.700Z,4.13
2019-05-06T10:10:53.741Z,7.30
2019-05-06T10:13:12.854Z,3.13
2019-05-06T10:15:42.833Z,5.60
2019-05-06T10:18:13.166Z,4.67
2019-05-06T10:20:46.247Z,4.30
2019-05-06T10:23:15.065Z,3.13
2019-05-06T10:25:44.183Z,5.13
2019-05-06T10:28:33.782Z,3.57
2019-05-06T10:31:05.301Z,3.57
2019-05-06T10:33:36.313Z,3.57
2019-05-06T10:36:04.672Z,3.90
2019-05-06T10:38:59.623Z,4.00
2019-05-06T10:41:35.859Z,2.00
2019-05-06T10:44:49.340Z,2.80
2019-05-06T10:47:17.364Z,2.23
2019-05-06T10:49:45.490Z,2.90
2019-05-06T10:52:18.768Z,4.53
2019-05-06T10:54:47.200Z,4.03
2019-05-06T10:57:46.780Z,4.10
2019-05-06T11:00:16.520Z,4.47
2019-05-06T11:03:22.827Z,1.77
2019-05-06T11:05:53.380Z,4.20
2019-05-06T11:08:22.152Z,3.93
2019-05-06T11:10:50.365Z,3.23
2019-05-06T11:13:18.912Z,3.40
2019-05-06T11:15:47.084Z,6.53
2019-05-06T11:18:15.699Z,2.53
2019-05-06T11:20:44.262Z,3.23
2019-05-06T11:23:14.230Z,6.70
2019-05-06T11:25:43.471Z,3.40
2019-05-06T11:28:30.081Z,5.07
2019-05-06T11:31:17.931Z,4.93
2019-05-06T11:34:02.970Z,5.03
2019-05-06T11:36:56.390Z,2.80
2019-05-06T11:39:24.604Z,2.43
2019-05-06T11:42:14.434Z,4.33
2019-05-06T11:44:23.921Z,3.80
2019-05-06T11:46:52.518Z,3.10
2019-05-06T11:49:23.050Z,4.07
2019-05-06T11:51:51.432Z,4.00
2019-05-06T11:54:21.568Z,4.50
2019-05-06T11:56:55.143Z,4.00
2019-05-06T11:59:22.586Z,3.03
2019-05-06T12:01:54.359Z,3.97
2019-05-06T12:04:23.328Z,2.40
2019-05-06T12:06:54.019Z,2.50
2019-05-06T12:09:22.401Z,4.30
2019-05-06T12:11:52.875Z,4.23
2019-05-06T12:14:22.719Z,2.00
2019-05-06T12:16:54.869Z,2.37
2019-05-06T12:19:22.534Z,6.20
2019-05-06T12:21:51.594Z,1.80
2019-05-06T12:24:19.749Z,2.83
2019-05-06T12:26:47.904Z,7.13
2019-05-06T12:29:16.174Z,2.93
2019-05-06T12:31:48.655Z,3.90
2019-05-06T12:34:17.314Z,2.37
2019-05-06T12:36:47.362Z,2.37
2019-05-06T12:39:26.884Z,4.70
2019-05-06T12:42:14.993Z,1.77
2019-05-06T12:45:03.852Z,6.07
2019-05-06T12:47:37.519Z,2.73
2019-05-06T12:50:06.310Z,2.87
2019-05-06T12:52:34.462Z,3.47
2019-05-06T12:55:17.528Z,4.83
2019-05-06T12:57:34.366Z,2.93
2019-05-06T13:00:04.576Z,3.77
2019-05-06T13:02:33.054Z,2.63
2019-05-06T13:05:03.943Z,2.07
2019-05-06T13:07:38.483Z,4.97
2019-05-06T13:10:07.109Z,2.80
2019-05-06T13:12:37.013Z,6.30
2019-05-06T13:15:08.185Z,3.57
2019-05-06T13:17:35.942Z,2.97
2019-05-06T13:20:05.397Z,2.03
2019-05-06T13:22:59.422Z,4.27
2019-05-06T13:25:27.625Z,2.00
2019-05-06T13:27:56.128Z,1.60
2019-05-06T13:30:24.539Z,2.33
2019-05-06T13:32:58.163Z,3.00
2019-05-06T13:35:27.119Z,1.67
2019-05-06T13:37:55.337Z,3.20
2019-05-06T13:40:27.171Z,2.67
2019-05-06T13:43:20.262Z,3.90
2019-05-06T13:45:52.536Z,1.70
2019-05-06T13:48:27.157Z,2.67
2019-05-06T13:51:03.224Z,2.40
2019-05-06T13:53:39.085Z,2.90
2019-05-06T13:56:04.054Z,2.97
2019-05-06T13:58:32.354Z,2.10
2019-05-06T14:01:03.265Z,3.67
2019-05-06T14:03:32.265Z,3.30
2019-05-06T14:06:03.020Z,2.60
2019-05-06T14:08:33.004Z,3.87
2019-05-06T14:11:02.927Z,2.63
2019-05-06T14:13:32.777Z,2.30
2019-05-06T14:16:03.752Z,5.10
2019-05-06T14:18:33.191Z,3.30
2019-05-06T14:21:02.948Z,2.73
2019-05-06T14:23:32.728Z,2.33
2019-05-06T14:26:25.791Z,2.57
2019-05-06T14:29:23.400Z,2.63
2019-05-06T14:31:52.608Z,2.17
2019-05-06T14:34:22.936Z,8.90
2019-05-06T14:36:53.405Z,3.07
2019-05-06T14:39:25.522Z,3.87
2019-05-06T14:41:54.993Z,2.03
2019-05-06T14:44:23.504Z,2.77
2019-05-06T14:46:58.663Z,3.33
2019-05-06T14:49:28.425Z,2.37
2019-05-06T14:51:56.587Z,4.07
2019-05-06T14:54:25.062Z,4.47
2019-05-06T14:56:57.450Z,5.23
2019-05-06T14:59:25.712Z,3.13
2019-05-06T15:01:54.124Z,4.00
2019-05-06T15:04:23.186Z,2.67
2019-05-06T15:06:52.966Z,2.13
2019-05-06T15:09:22.659Z,3.37
2019-05-06T15:11:51.022Z,3.63
2019-05-06T15:14:19.601Z,2.50
2019-05-06T15:16:47.965Z,5.33
2019-05-06T15:19:16.488Z,2.93
2019-05-06T15:21:44.924Z,4.80
2019-05-06T15:24:14.380Z,2.63
2019-05-06T15:26:43.277Z,4.60
2019-05-06T15:29:12.774Z,5.53
2019-05-06T15:32:13.063Z,4.03
2019-05-06T15:35:02.327Z,3.57
2019-05-06T15:37:42.256Z,4.53
2019-05-06T15:40:12.172Z,4.93
2019-05-06T15:42:42.505Z,2.53
2019-05-06T15:45:12.697Z,1.93
2019-05-06T15:47:42.579Z,2.53
2019-05-06T15:50:13.477Z,1.13
2019-05-06T15:52:43.457Z,2.03
2019-05-06T15:55:12.636Z,1.43
2019-05-06T15:57:43.392Z,1.13
2019-05-06T16:00:15.678Z,1.70
2019-05-06T16:02:43.873Z,4.10
2019-05-06T16:05:19.468Z,3.43
2019-05-06T16:07:43.466Z,1.80
2019-05-06T16:10:13.351Z,3.57
2019-05-06T16:12:46.037Z,4.27
2019-05-06T16:15:14.600Z,1.50
2019-05-06T16:17:44.708Z,2.23
2019-05-06T16:20:13.135Z,1.60
2019-05-06T16:22:44.547Z,3.90
2019-05-06T16:25:14.480Z,3.97
2019-05-06T16:27:44.157Z,2.00
2019-05-06T16:30:16.436Z,2.70
2019-05-06T16:32:44.614Z,2.30
2019-05-06T16:35:14.385Z,3.27
2019-05-06T16:37:42.835Z,3.73
2019-05-06T16:40:12.503Z,2.40
2019-05-06T16:42:45.452Z,2.93
2019-05-06T16:45:12.605Z,2.90
2019-05-06T16:47:44.416Z,1.70
2019-05-06T16:50:14.684Z,2.03
2019-05-06T16:52:45.582Z,2.63
2019-05-06T16:55:18.963Z,3.57
2019-05-06T16:57:54.181Z,2.83
2019-05-06T17:00:25.334Z,3.83
2019-05-06T17:03:16.212Z,6.37
2019-05-06T17:06:07.714Z,3.30
2019-05-06T17:08:36.420Z,3.80
2019-05-06T17:11:05.802Z,4.00
2019-05-06T17:13:37.574Z,2.93
2019-05-06T17:16:04.476Z,3.50
2019-05-06T17:18:33.188Z,3.43
2019-05-06T17:21:01.398Z,4.87
2019-05-06T17:23:29.526Z,4.80
2019-05-06T17:25:58.336Z,6.60
2019-05-06T17:28:52.201Z,4.30
2019-05-06T17:31:38.465Z,2.97
2019-05-06T17:34:08.187Z,2.87
2019-05-06T17:36:37.472Z,3.77
2019-05-06T17:39:08.693Z,3.47
2019-05-06T17:41:45.891Z,2.67
2019-05-06T17:44:08.780Z,3.50
2019-05-06T17:46:43.996Z,2.00
2019-05-06T17:49:16.727Z,2.93
2019-05-06T17:52:04.526Z,4.53
2019-05-06T17:54:32.703Z,4.07
2019-05-06T17:57:03.853Z,4.17
2019-05-06T17:59:33.180Z,7.07
2019-05-06T18:02:03.738Z,2.73
2019-05-06T18:04:34.397Z,2.27
2019-05-06T18:07:04.053Z,2.53
2019-05-06T18:09:33.462Z,4.70
2019-05-06T18:12:03.140Z,5.23
2019-05-06T18:14:33.137Z,3.43
2019-05-06T18:17:03.685Z,6.20
2019-05-06T18:19:33.215Z,4.47
2019-05-06T18:22:02.598Z,2.80
2019-05-06T18:24:33.037Z,3.73
2019-05-06T18:27:02.632Z,5.67
2019-05-06T18:29:33.501Z,4.00
2019-05-06T18:32:03.525Z,9.80
2019-05-06T18:34:32.578Z,4.17
2019-05-06T18:37:03.156Z,5.17
2019-05-06T18:39:33.784Z,5.53
2019-05-06T18:42:16.082Z,3.50
2019-05-06T18:44:33.320Z,9.83
2019-05-06T18:47:02.728Z,14.30
2019-05-06T18:49:33.604Z,5.90
2019-05-06T18:52:02.132Z,6.67
2019-05-06T18:54:33.149Z,5.63
2019-05-06T18:57:02.644Z,8.30
2019-05-06T18:59:32.425Z,8.30
2019-05-06T19:02:02.155Z,7.93
2019-05-06T19:04:41.762Z,7.60
2019-05-06T19:07:14.482Z,8.93
2019-05-06T19:10:00.271Z,10.67
2019-05-06T19:12:34.381Z,10.67
2019-05-06T19:14:58.952Z,9.57
2019-05-06T19:17:27.459Z,8.53
2019-05-06T19:19:55.710Z,9.10
2019-05-06T19:22:23.947Z,6.47
2019-05-06T19:24:52.873Z,8.63
2019-05-06T19:27:24.699Z,7.73
2019-05-06T19:29:54.342Z,5.87
2019-05-06T19:32:22.606Z,7.50
2019-05-06T19:34:53.001Z,7.60
2019-05-06T19:37:23.082Z,9.07
2019-05-06T19:39:52.480Z,8.43
2019-05-06T19:42:22.379Z,8.43
2019-05-06T19:44:52.796Z,7.20
2019-05-06T19:47:21.124Z,10.27
2019-05-06T19:49:49.295Z,9.70
2019-05-06T19:52:17.878Z,7.17
2019-05-06T19:54:46.280Z,11.17
2019-05-06T19:57:15.954Z,9.77
2019-05-06T19:59:44.316Z,10.80
2019-05-06T20:02:13.086Z,12.03
2019-05-06T20:04:44.389Z,13.90
2019-05-06T20:07:38.384Z,8.97
2019-05-06T20:10:23.799Z,9.53
2019-05-06T20:13:01.968Z,8.27
2019-05-06T20:15:38.629Z,13.27
2019-05-06T20:18:07.840Z,12.37
2019-05-06T20:20:36.356Z,12.70
2019-05-06T20:23:05.095Z,12.60
2019-05-06T20:25:36.959Z,13.47
2019-05-06T20:28:05.169Z,10.80
2019-05-06T20:30:33.429Z,11.07
2019-05-06T20:33:01.556Z,11.37
2019-05-06T20:35:32.191Z,14.97
2019-05-06T20:38:02.602Z,10.87
2019-05-06T20:40:32.655Z,11.47
2019-05-06T20:43:14.024Z,12.63
2019-05-06T20:45:35.137Z,13.20
2019-05-06T20:48:03.227Z,11.70
2019-05-06T20:50:32.240Z,11.73
2019-05-06T20:53:00.960Z,12.50
2019-05-06T20:55:32.636Z,9.47
2019-05-06T20:57:59.943Z,12.00
2019-05-06T21:00:28.058Z,13.97
2019-05-06T21:02:56.316Z,11.20
2019-05-06T21:05:26.239Z,13.00
2019-05-06T21:07:54.647Z,14.17
2019-05-06T21:10:23.204Z,14.27
2019-05-06T21:12:53.229Z,13.27
2019-05-06T21:15:22.932Z,12.67
2019-05-06T21:17:51.353Z,12.17
2019-05-06T21:20:20.014Z,13.40
2019-05-06T21:22:49.125Z,13.10
2019-05-06T21:25:17.892Z,10.90
2019-05-06T21:27:46.036Z,12.23
2019-05-06T21:30:14.649Z,13.30
2019-05-06T21:32:42.854Z,15.23
2019-05-06T21:35:12.709Z,13.17
2019-05-06T21:37:43.898Z,14.23
2019-05-06T21:40:13.465Z,14.83
2019-05-06T21:42:43.115Z,12.97
2019-05-06T21:45:14.988Z,11.50
2019-05-06T21:47:46.284Z,10.63
2019-05-06T21:50:13.205Z,15.87
2019-05-06T21:52:43.055Z,12.43
2019-05-06T21:55:13.195Z,12.17
2019-05-06T21:57:42.496Z,12.03
2019-05-06T22:00:16.398Z,14.83
2019-05-06T22:02:43.241Z,13.70
2019-05-06T22:05:13.329Z,12.40
2019-05-06T22:07:43.432Z,13.63
2019-05-06T22:10:12.170Z,16.70
2019-05-06T22:12:43.201Z,13.10
2019-05-06T22:15:12.677Z,14.67
2019-05-06T22:17:42.935Z,13.70
2019-05-06T22:20:11.448Z,16.00
2019-05-06T22:22:42.399Z,12.73
2019-05-06T22:25:12.495Z,14.33
2019-05-06T22:27:44.246Z,13.23
2019-05-06T22:30:12.024Z,16.23
2019-05-06T22:32:46.441Z,13.70
2019-05-06T22:35:16.189Z,15.57
2019-05-06T22:37:45.214Z,15.80
2019-05-06T22:40:13.697Z,12.90
2019-05-06T22:42:43.092Z,13.67
2019-05-06T22:45:12.925Z,12.37
2019-05-06T22:47:42.152Z,12.00
2019-05-06T22:50:13.110Z,12.13
2019-05-06T22:52:42.071Z,12.60
2019-05-06T22:55:12.994Z,11.70
2019-05-06T22:57:42.269Z,11.87
2019-05-06T23:00:22.376Z,10.67
2019-05-06T23:02:55.761Z,11.57
2019-05-06T23:05:23.997Z,15.73
2019-05-06T23:07:53.218Z,13.17
2019-05-06T23:10:24.567Z,16.40
2019-05-06T23:12:52.369Z,11.70
2019-05-06T23:15:20.736Z,12.90
2019-05-06T23:17:48.911Z,14.33
2019-05-06T23:20:17.041Z,10.60
2019-05-06T23:22:45.933Z,12.70
2019-05-06T23:25:14.240Z,12.23
2019-05-06T23:27:44.220Z,10.97
2019-05-06T23:30:13.196Z,11.73
2019-05-06T23:32:42.378Z,12.40
2019-05-06T23:35:12.814Z,11.17
2019-05-06T23:38:36.282Z,11.00
2019-05-06T23:41:59.314Z,12.70
2019-05-06T23:45:22.863Z,11.77
2019-05-06T23:48:46.523Z,10.10
2019-05-06T23:52:09.457Z,11.47
2019-05-06T23:55:32.712Z,11.83
2019-05-06T23:57:59.901Z,12.20
